sensor_id;sensor_type;location;lat;lon;timestamp;temperature;humidity
48686;DHT22;34485;51.536;3.816;2022-12-28T00:01:09;7.00;99.90
48686;DHT22;34485;51.536;3.816;2022-12-28T00:03:35;7.10;99.90
48686;DHT22;34485;51.536;3.816;2022-12-28T00:06:02;7.10;99.90
48686;DHT22;34485;51.536;3.816;2022-12-28T00:08:28;7.10;99.90
48686;DHT22;34485;51.536;3.816;2022-12-28T00:10:59;7.10;99.90
48686;DHT22;34485;51.536;3.816;2022-12-28T00:13:25;7.10;99.90
48686;DHT22;34485;51.536;3.816;2022-12-28T00:15:51;7.10;99.90
48686;DHT22;34485;51.536;3.816;2022-12-28T00:18:17;7.20;99.90
48686;DHT22;34485;51.536;3.816;2022-12-28T00:20:42;7.20;99.90
48686;DHT22;34485;51.536;3.816;2022-12-28T00:23:08;7.20;99.90
48686;DHT22;34485;51.536;3.816;2022-12-28T00:25:35;7.20;99.90
48686;DHT22;34485;51.536;3.816;2022-12-28T00:28:01;7.20;99.90
48686;DHT22;34485;51.536;3.816;2022-12-28T00:30:26;7.20;99.90
48686;DHT22;34485;51.536;3.816;2022-12-28T00:32:52;7.20;99.90
48686;DHT22;34485;51.536;3.816;2022-12-28T00:35:17;7.20;99.90
48686;DHT22;34485;51.536;3.816;2022-12-28T00:37:43;7.10;99.90
48686;DHT22;34485;51.536;3.816;2022-12-28T00:40:09;7.10;99.90
48686;DHT22;34485;51.536;3.816;2022-12-28T00:42:35;7.20;99.90
48686;DHT22;34485;51.536;3.816;2022-12-28T00:45:00;7.10;99.90
48686;DHT22;34485;51.536;3.816;2022-12-28T00:47:26;7.10;99.90
48686;DHT22;34485;51.536;3.816;2022-12-28T00:49:52;7.10;99.90
48686;DHT22;34485;51.536;3.816;2022-12-28T00:52:17;7.00;99.90
48686;DHT22;34485;51.536;3.816;2022-12-28T00:54:43;7.00;99.90
48686;DHT22;34485;51.536;3.816;2022-12-28T00:57:08;7.10;99.90
48686;DHT22;34485;51.536;3.816;2022-12-28T00:59:34;7.10;99.90
48686;DHT22;34485;51.536;3.816;2022-12-28T01:01:59;7.10;99.90
48686;DHT22;34485;51.536;3.816;2022-12-28T01:04:25;7.20;99.90
48686;DHT22;34485;51.536;3.816;2022-12-28T01:06:51;7.20;99.90
48686;DHT22;34485;51.536;3.816;2022-12-28T01:09:16;7.30;99.90
48686;DHT22;34485;51.536;3.816;2022-12-28T01:11:42;7.40;99.90
48686;DHT22;34485;51.536;3.816;2022-12-28T01:14:07;7.40;99.90
48686;DHT22;34485;51.536;3.816;2022-12-28T01:16:35;7.40;99.90
48686;DHT22;34485;51.536;3.816;2022-12-28T01:19:02;7.50;99.90
48686;DHT22;34485;51.536;3.816;2022-12-28T01:21:31;7.60;99.90
48686;DHT22;34485;51.536;3.816;2022-12-28T01:23:59;7.60;99.90
48686;DHT22;34485;51.536;3.816;2022-12-28T01:28:51;7.60;99.90
48686;DHT22;34485;51.536;3.816;2022-12-28T01:31:19;7.60;99.90
48686;DHT22;34485;51.536;3.816;2022-12-28T01:33:45;7.60;99.90
48686;DHT22;34485;51.536;3.816;2022-12-28T01:36:15;7.60;99.90
48686;DHT22;34485;51.536;3.816;2022-12-28T01:38:41;7.70;99.90
48686;DHT22;34485;51.536;3.816;2022-12-28T01:41:08;7.70;99.90
48686;DHT22;34485;51.536;3.816;2022-12-28T01:48:58;7.80;99.90
48686;DHT22;34485;51.536;3.816;2022-12-28T01:51:29;7.80;99.90
48686;DHT22;34485;51.536;3.816;2022-12-28T01:53:57;7.80;99.90
48686;DHT22;34485;51.536;3.816;2022-12-28T01:56:25;7.90;99.90
48686;DHT22;34485;51.536;3.816;2022-12-28T01:58:51;7.90;99.90
48686;DHT22;34485;51.536;3.816;2022-12-28T02:01:18;7.90;99.90
48686;DHT22;34485;51.536;3.816;2022-12-28T02:03:43;7.90;99.90
48686;DHT22;34485;51.536;3.816;2022-12-28T02:06:11;7.90;99.90
48686;DHT22;34485;51.536;3.816;2022-12-28T02:11:12;7.90;99.90
48686;DHT22;34485;51.536;3.816;2022-12-28T02:13:39;7.90;99.90
48686;DHT22;34485;51.536;3.816;2022-12-28T02:16:08;8.00;99.90
48686;DHT22;34485;51.536;3.816;2022-12-28T02:18:34;8.00;99.90
48686;DHT22;34485;51.536;3.816;2022-12-28T02:21:16;7.90;99.90
48686;DHT22;34485;51.536;3.816;2022-12-28T02:37:38;8.10;99.90
48686;DHT22;34485;51.536;3.816;2022-12-28T02:42:37;8.30;99.90
48686;DHT22;34485;51.536;3.816;2022-12-28T02:45:04;8.30;99.90
48686;DHT22;34485;51.536;3.816;2022-12-28T02:47:49;8.40;99.90
48686;DHT22;34485;51.536;3.816;2022-12-28T02:50:59;8.40;99.90
48686;DHT22;34485;51.536;3.816;2022-12-28T03:01:51;8.40;99.90
48686;DHT22;34485;51.536;3.816;2022-12-28T03:04:36;8.50;99.90
48686;DHT22;34485;51.536;3.816;2022-12-28T03:07:16;8.50;99.90
48686;DHT22;34485;51.536;3.816;2022-12-28T03:10:22;8.50;99.90
48686;DHT22;34485;51.536;3.816;2022-12-28T03:13:09;8.60;99.90
48686;DHT22;34485;51.536;3.816;2022-12-28T03:16:02;8.60;99.90
48686;DHT22;34485;51.536;3.816;2022-12-28T03:18:30;8.60;99.90
48686;DHT22;34485;51.536;3.816;2022-12-28T03:21:15;8.60;99.90
48686;DHT22;34485;51.536;3.816;2022-12-28T03:24:00;8.60;99.90
48686;DHT22;34485;51.536;3.816;2022-12-28T03:26:47;8.60;99.90
48686;DHT22;34485;51.536;3.816;2022-12-28T03:29:40;8.60;99.90
48686;DHT22;34485;51.536;3.816;2022-12-28T03:32:25;8.70;99.90
48686;DHT22;34485;51.536;3.816;2022-12-28T03:34:51;8.70;99.90
48686;DHT22;34485;51.536;3.816;2022-12-28T03:37:23;8.70;99.90
48686;DHT22;34485;51.536;3.816;2022-12-28T03:42:42;8.70;99.90
48686;DHT22;34485;51.536;3.816;2022-12-28T03:47:53;8.70;99.90
48686;DHT22;34485;51.536;3.816;2022-12-28T03:50:21;8.70;99.90
48686;DHT22;34485;51.536;3.816;2022-12-28T03:52:47;8.80;99.90
48686;DHT22;34485;51.536;3.816;2022-12-28T03:55:13;8.80;99.90
48686;DHT22;34485;51.536;3.816;2022-12-28T03:57:40;8.80;99.90
48686;DHT22;34485;51.536;3.816;2022-12-28T04:00:06;8.80;99.90
48686;DHT22;34485;51.536;3.816;2022-12-28T04:02:34;8.90;99.90
48686;DHT22;34485;51.536;3.816;2022-12-28T04:04:59;8.80;99.90
48686;DHT22;34485;51.536;3.816;2022-12-28T04:07:26;8.80;99.90
48686;DHT22;34485;51.536;3.816;2022-12-28T04:09:52;8.80;99.90
48686;DHT22;34485;51.536;3.816;2022-12-28T04:12:17;8.90;99.90
48686;DHT22;34485;51.536;3.816;2022-12-28T04:14:43;8.90;99.90
48686;DHT22;34485;51.536;3.816;2022-12-28T04:17:09;8.90;99.90
48686;DHT22;34485;51.536;3.816;2022-12-28T04:19:34;8.80;99.90
48686;DHT22;34485;51.536;3.816;2022-12-28T04:22:00;8.80;99.90
48686;DHT22;34485;51.536;3.816;2022-12-28T04:24:25;8.80;99.90
48686;DHT22;34485;51.536;3.816;2022-12-28T04:26:51;8.80;99.90
48686;DHT22;34485;51.536;3.816;2022-12-28T04:29:17;8.80;99.90
48686;DHT22;34485;51.536;3.816;2022-12-28T04:31:42;8.80;99.90
48686;DHT22;34485;51.536;3.816;2022-12-28T04:34:08;8.80;99.90
48686;DHT22;34485;51.536;3.816;2022-12-28T04:36:34;8.80;99.90
48686;DHT22;34485;51.536;3.816;2022-12-28T04:38:59;8.80;99.90
48686;DHT22;34485;51.536;3.816;2022-12-28T04:41:25;8.80;99.90
48686;DHT22;34485;51.536;3.816;2022-12-28T04:43:53;8.80;99.90
48686;DHT22;34485;51.536;3.816;2022-12-28T04:46:19;8.80;99.90
48686;DHT22;34485;51.536;3.816;2022-12-28T04:48:44;8.80;99.90
48686;DHT22;34485;51.536;3.816;2022-12-28T04:51:17;8.90;99.90
48686;DHT22;34485;51.536;3.816;2022-12-28T04:53:43;8.90;99.90
48686;DHT22;34485;51.536;3.816;2022-12-28T04:56:10;8.90;99.90
48686;DHT22;34485;51.536;3.816;2022-12-28T04:58:36;8.90;99.90
48686;DHT22;34485;51.536;3.816;2022-12-28T05:01:04;8.90;99.90
48686;DHT22;34485;51.536;3.816;2022-12-28T05:03:30;9.00;99.90
48686;DHT22;34485;51.536;3.816;2022-12-28T05:06:00;9.00;99.90
48686;DHT22;34485;51.536;3.816;2022-12-28T05:08:25;9.00;99.90
48686;DHT22;34485;51.536;3.816;2022-12-28T05:10:51;9.00;99.90
48686;DHT22;34485;51.536;3.816;2022-12-28T05:13:17;9.00;99.90
48686;DHT22;34485;51.536;3.816;2022-12-28T05:15:42;9.00;99.90
48686;DHT22;34485;51.536;3.816;2022-12-28T05:18:08;9.00;99.90
48686;DHT22;34485;51.536;3.816;2022-12-28T05:20:33;9.00;99.90
48686;DHT22;34485;51.536;3.816;2022-12-28T05:22:59;9.00;99.90
48686;DHT22;34485;51.536;3.816;2022-12-28T05:25:25;9.00;99.90
48686;DHT22;34485;51.536;3.816;2022-12-28T05:27:50;9.00;99.90
48686;DHT22;34485;51.536;3.816;2022-12-28T05:30:18;9.00;99.90
48686;DHT22;34485;51.536;3.816;2022-12-28T05:32:44;9.00;99.90
48686;DHT22;34485;51.536;3.816;2022-12-28T05:35:09;9.00;99.90
48686;DHT22;34485;51.536;3.816;2022-12-28T05:37:35;9.10;99.90
48686;DHT22;34485;51.536;3.816;2022-12-28T05:40:01;9.10;99.90
48686;DHT22;34485;51.536;3.816;2022-12-28T05:42:26;9.10;99.90
48686;DHT22;34485;51.536;3.816;2022-12-28T05:44:52;9.10;99.90
48686;DHT22;34485;51.536;3.816;2022-12-28T05:47:17;9.10;99.90
48686;DHT22;34485;51.536;3.816;2022-12-28T05:49:43;9.10;99.90
48686;DHT22;34485;51.536;3.816;2022-12-28T05:52:08;9.10;99.90
48686;DHT22;34485;51.536;3.816;2022-12-28T05:54:34;9.10;99.90
48686;DHT22;34485;51.536;3.816;2022-12-28T05:57:00;9.10;99.90
48686;DHT22;34485;51.536;3.816;2022-12-28T05:59:25;9.10;99.90
48686;DHT22;34485;51.536;3.816;2022-12-28T06:01:51;9.10;99.90
48686;DHT22;34485;51.536;3.816;2022-12-28T06:04:18;9.00;99.90
48686;DHT22;34485;51.536;3.816;2022-12-28T06:06:45;9.00;99.90
48686;DHT22;34485;51.536;3.816;2022-12-28T06:09:11;9.20;99.90
48686;DHT22;34485;51.536;3.816;2022-12-28T06:11:37;9.10;99.90
48686;DHT22;34485;51.536;3.816;2022-12-28T06:14:03;9.10;99.90
48686;DHT22;34485;51.536;3.816;2022-12-28T06:16:32;9.10;99.90
48686;DHT22;34485;51.536;3.816;2022-12-28T06:18:58;9.10;99.90
48686;DHT22;34485;51.536;3.816;2022-12-28T06:21:26;9.10;99.90
48686;DHT22;34485;51.536;3.816;2022-12-28T06:23:54;9.10;99.90
48686;DHT22;34485;51.536;3.816;2022-12-28T06:26:22;9.10;99.90
48686;DHT22;34485;51.536;3.816;2022-12-28T06:28:49;9.10;99.90
48686;DHT22;34485;51.536;3.816;2022-12-28T06:31:18;9.10;99.90
48686;DHT22;34485;51.536;3.816;2022-12-28T06:33:45;9.10;99.90
48686;DHT22;34485;51.536;3.816;2022-12-28T06:36:16;9.10;99.90
48686;DHT22;34485;51.536;3.816;2022-12-28T06:38:42;9.10;99.90
48686;DHT22;34485;51.536;3.816;2022-12-28T06:41:10;9.10;99.90
48686;DHT22;34485;51.536;3.816;2022-12-28T06:43:37;9.10;99.90
48686;DHT22;34485;51.536;3.816;2022-12-28T06:46:04;9.20;99.90
48686;DHT22;34485;51.536;3.816;2022-12-28T06:48:30;9.20;99.90
48686;DHT22;34485;51.536;3.816;2022-12-28T06:50:59;9.10;99.90
48686;DHT22;34485;51.536;3.816;2022-12-28T06:53:28;9.20;99.90
48686;DHT22;34485;51.536;3.816;2022-12-28T06:55:55;9.20;99.90
48686;DHT22;34485;51.536;3.816;2022-12-28T06:58:22;9.20;99.90
48686;DHT22;34485;51.536;3.816;2022-12-28T07:00:48;9.20;99.90
48686;DHT22;34485;51.536;3.816;2022-12-28T07:03:14;9.20;99.90
48686;DHT22;34485;51.536;3.816;2022-12-28T07:05:39;9.20;99.90
48686;DHT22;34485;51.536;3.816;2022-12-28T07:08:05;9.20;99.90
48686;DHT22;34485;51.536;3.816;2022-12-28T07:10:32;9.30;99.90
48686;DHT22;34485;51.536;3.816;2022-12-28T07:12:58;9.30;99.90
48686;DHT22;34485;51.536;3.816;2022-12-28T07:15:23;9.30;99.90
48686;DHT22;34485;51.536;3.816;2022-12-28T07:17:49;9.20;99.90
48686;DHT22;34485;51.536;3.816;2022-12-28T07:20:15;9.20;99.90
48686;DHT22;34485;51.536;3.816;2022-12-28T07:22:40;9.20;99.90
48686;DHT22;34485;51.536;3.816;2022-12-28T07:25:06;9.30;99.90
48686;DHT22;34485;51.536;3.816;2022-12-28T07:27:34;9.20;99.90
48686;DHT22;34485;51.536;3.816;2022-12-28T07:29:59;9.20;99.90
48686;DHT22;34485;51.536;3.816;2022-12-28T07:32:25;9.20;99.90
48686;DHT22;34485;51.536;3.816;2022-12-28T07:34:51;9.20;99.90
48686;DHT22;34485;51.536;3.816;2022-12-28T07:37:16;9.20;99.90
48686;DHT22;34485;51.536;3.816;2022-12-28T07:39:42;9.30;99.90
48686;DHT22;34485;51.536;3.816;2022-12-28T07:42:07;9.30;99.90
48686;DHT22;34485;51.536;3.816;2022-12-28T07:44:36;9.30;99.90
48686;DHT22;34485;51.536;3.816;2022-12-28T07:51:54;9.30;99.90
48686;DHT22;34485;51.536;3.816;2022-12-28T07:54:19;9.40;99.90
48686;DHT22;34485;51.536;3.816;2022-12-28T07:56:45;9.40;99.90
48686;DHT22;34485;51.536;3.816;2022-12-28T07:59:10;9.50;99.90
48686;DHT22;34485;51.536;3.816;2022-12-28T08:01:39;9.50;99.90
48686;DHT22;34485;51.536;3.816;2022-12-28T08:04:11;9.50;99.90
48686;DHT22;34485;51.536;3.816;2022-12-28T08:06:39;9.50;99.90
48686;DHT22;34485;51.536;3.816;2022-12-28T08:09:05;9.50;99.90
48686;DHT22;34485;51.536;3.816;2022-12-28T08:11:34;9.50;99.90
48686;DHT22;34485;51.536;3.816;2022-12-28T08:14:00;9.50;99.90
48686;DHT22;34485;51.536;3.816;2022-12-28T08:16:29;9.50;99.90
48686;DHT22;34485;51.536;3.816;2022-12-28T08:18:55;9.50;99.90
48686;DHT22;34485;51.536;3.816;2022-12-28T08:21:23;9.60;99.90
48686;DHT22;34485;51.536;3.816;2022-12-28T08:23:49;9.60;99.90
48686;DHT22;34485;51.536;3.816;2022-12-28T08:26:23;9.60;99.90
48686;DHT22;34485;51.536;3.816;2022-12-28T08:28:52;9.60;99.90
48686;DHT22;34485;51.536;3.816;2022-12-28T08:31:22;9.60;99.90
48686;DHT22;34485;51.536;3.816;2022-12-28T08:33:48;9.50;99.90
48686;DHT22;34485;51.536;3.816;2022-12-28T08:36:14;9.50;99.90
48686;DHT22;34485;51.536;3.816;2022-12-28T08:38:41;9.50;99.90
48686;DHT22;34485;51.536;3.816;2022-12-28T08:41:10;9.50;99.90
48686;DHT22;34485;51.536;3.816;2022-12-28T08:43:36;9.50;99.90
48686;DHT22;34485;51.536;3.816;2022-12-28T08:46:04;9.50;99.90
48686;DHT22;34485;51.536;3.816;2022-12-28T08:48:31;9.50;99.90
48686;DHT22;34485;51.536;3.816;2022-12-28T08:51:08;9.50;99.90
48686;DHT22;34485;51.536;3.816;2022-12-28T08:53:34;9.60;99.90
48686;DHT22;34485;51.536;3.816;2022-12-28T08:56:12;9.60;99.90
48686;DHT22;34485;51.536;3.816;2022-12-28T08:58:39;9.70;99.90
48686;DHT22;34485;51.536;3.816;2022-12-28T09:01:13;9.70;99.90
48686;DHT22;34485;51.536;3.816;2022-12-28T09:03:40;9.70;99.90
48686;DHT22;34485;51.536;3.816;2022-12-28T09:06:12;9.70;99.90
48686;DHT22;34485;51.536;3.816;2022-12-28T09:08:39;9.70;99.90
48686;DHT22;34485;51.536;3.816;2022-12-28T09:11:07;9.80;99.90
48686;DHT22;34485;51.536;3.816;2022-12-28T09:13:34;9.80;99.90
48686;DHT22;34485;51.536;3.816;2022-12-28T09:16:14;9.80;99.90
48686;DHT22;34485;51.536;3.816;2022-12-28T09:18:42;9.80;99.90
48686;DHT22;34485;51.536;3.816;2022-12-28T09:21:16;9.80;99.90
48686;DHT22;34485;51.536;3.816;2022-12-28T09:23:44;9.80;99.90
48686;DHT22;34485;51.536;3.816;2022-12-28T09:26:18;9.80;99.90
48686;DHT22;34485;51.536;3.816;2022-12-28T09:28:49;9.70;99.90
48686;DHT22;34485;51.536;3.816;2022-12-28T09:31:16;9.70;99.90
48686;DHT22;34485;51.536;3.816;2022-12-28T09:33:42;9.70;99.90
48686;DHT22;34485;51.536;3.816;2022-12-28T09:36:24;9.70;99.90
48686;DHT22;34485;51.536;3.816;2022-12-28T09:38:50;9.70;99.90
48686;DHT22;34485;51.536;3.816;2022-12-28T09:41:32;9.70;99.90
48686;DHT22;34485;51.536;3.816;2022-12-28T09:47:13;9.60;99.90
48686;DHT22;34485;51.536;3.816;2022-12-28T09:49:48;9.60;99.90
48686;DHT22;34485;51.536;3.816;2022-12-28T09:54:49;9.50;99.90
48686;DHT22;34485;51.536;3.816;2022-12-28T09:57:17;9.50;99.90
48686;DHT22;34485;51.536;3.816;2022-12-28T09:59:45;9.50;99.90
48686;DHT22;34485;51.536;3.816;2022-12-28T10:02:38;9.50;99.90
48686;DHT22;34485;51.536;3.816;2022-12-28T10:05:05;9.40;99.90
48686;DHT22;34485;51.536;3.816;2022-12-28T10:07:31;9.40;99.90
48686;DHT22;34485;51.536;3.816;2022-12-28T10:09:57;9.40;99.90
48686;DHT22;34485;51.536;3.816;2022-12-28T10:12:23;9.30;99.90
48686;DHT22;34485;51.536;3.816;2022-12-28T10:14:50;9.30;99.90
48686;DHT22;34485;51.536;3.816;2022-12-28T10:17:21;9.30;99.90
48686;DHT22;34485;51.536;3.816;2022-12-28T10:19:49;9.30;99.90
48686;DHT22;34485;51.536;3.816;2022-12-28T10:22:19;9.30;99.90
48686;DHT22;34485;51.536;3.816;2022-12-28T10:24:46;9.30;99.90
48686;DHT22;34485;51.536;3.816;2022-12-28T10:27:24;9.30;99.90
48686;DHT22;34485;51.536;3.816;2022-12-28T10:29:50;9.30;99.90
48686;DHT22;34485;51.536;3.816;2022-12-28T10:32:17;9.30;99.90
48686;DHT22;34485;51.536;3.816;2022-12-28T10:34:59;9.30;99.90
48686;DHT22;34485;51.536;3.816;2022-12-28T10:37:28;9.30;99.90
48686;DHT22;34485;51.536;3.816;2022-12-28T10:42:40;9.40;99.90
48686;DHT22;34485;51.536;3.816;2022-12-28T10:45:16;9.40;99.90
48686;DHT22;34485;51.536;3.816;2022-12-28T10:47:46;9.40;99.90
48686;DHT22;34485;51.536;3.816;2022-12-28T10:50:50;9.40;99.90
48686;DHT22;34485;51.536;3.816;2022-12-28T10:58:39;9.30;99.90
48686;DHT22;34485;51.536;3.816;2022-12-28T11:01:19;9.30;99.90
48686;DHT22;34485;51.536;3.816;2022-12-28T11:06:57;9.30;99.90
48686;DHT22;34485;51.536;3.816;2022-12-28T11:11:52;9.30;99.90
48686;DHT22;34485;51.536;3.816;2022-12-28T11:17:27;9.30;99.90
48686;DHT22;34485;51.536;3.816;2022-12-28T11:19:56;9.20;99.90
48686;DHT22;34485;51.536;3.816;2022-12-28T11:45:05;9.40;99.90
48686;DHT22;34485;51.536;3.816;2022-12-28T11:47:32;9.40;99.90
48686;DHT22;34485;51.536;3.816;2022-12-28T11:52:59;9.50;99.90
48686;DHT22;34485;51.536;3.816;2022-12-28T11:57:54;9.50;99.90
48686;DHT22;34485;51.536;3.816;2022-12-28T12:02:52;9.50;99.90
48686;DHT22;34485;51.536;3.816;2022-12-28T12:10:49;9.60;99.90
48686;DHT22;34485;51.536;3.816;2022-12-28T12:13:38;9.60;99.90
48686;DHT22;34485;51.536;3.816;2022-12-28T12:16:14;9.70;99.90
48686;DHT22;34485;51.536;3.816;2022-12-28T12:18:48;9.70;99.90
48686;DHT22;34485;51.536;3.816;2022-12-28T12:21:29;9.60;99.90
48686;DHT22;34485;51.536;3.816;2022-12-28T12:24:07;9.70;99.90
48686;DHT22;34485;51.536;3.816;2022-12-28T12:29:26;9.70;99.90
48686;DHT22;34485;51.536;3.816;2022-12-28T12:32:03;9.80;99.90
48686;DHT22;34485;51.536;3.816;2022-12-28T12:44:56;10.00;99.90
48686;DHT22;34485;51.536;3.816;2022-12-28T12:50:26;10.00;99.90
48686;DHT22;34485;51.536;3.816;2022-12-28T14:21:10;10.30;99.90
48686;DHT22;34485;51.536;3.816;2022-12-28T14:23:38;10.20;99.90
48686;DHT22;34485;51.536;3.816;2022-12-28T14:26:08;10.20;99.90
48686;DHT22;34485;51.536;3.816;2022-12-28T14:31:22;10.00;99.90
48686;DHT22;34485;51.536;3.816;2022-12-28T14:34:00;10.00;99.90
48686;DHT22;34485;51.536;3.816;2022-12-28T14:36:29;9.90;99.90
48686;DHT22;34485;51.536;3.816;2022-12-28T14:38:58;9.90;99.90
48686;DHT22;34485;51.536;3.816;2022-12-28T14:41:44;9.80;99.90
48686;DHT22;34485;51.536;3.816;2022-12-28T14:44:36;9.80;99.90
48686;DHT22;34485;51.536;3.816;2022-12-28T14:47:29;9.80;99.90
48686;DHT22;34485;51.536;3.816;2022-12-28T14:49:48;9.70;99.90
48686;DHT22;34485;51.536;3.816;2022-12-28T14:54:50;9.70;99.90
48686;DHT22;34485;51.536;3.816;2022-12-28T14:57:41;9.60;99.90
48686;DHT22;34485;51.536;3.816;2022-12-28T15:02:45;9.60;99.90
48686;DHT22;34485;51.536;3.816;2022-12-28T15:05:37;9.60;99.90
48686;DHT22;34485;51.536;3.816;2022-12-28T15:08:03;9.60;99.90
48686;DHT22;34485;51.536;3.816;2022-12-28T15:10:30;9.60;99.90
48686;DHT22;34485;51.536;3.816;2022-12-28T15:12:57;9.60;99.90
48686;DHT22;34485;51.536;3.816;2022-12-28T15:15:22;9.50;99.90
48686;DHT22;34485;51.536;3.816;2022-12-28T15:17:48;9.50;99.90
48686;DHT22;34485;51.536;3.816;2022-12-28T15:20:14;9.50;99.90
48686;DHT22;34485;51.536;3.816;2022-12-28T15:22:39;9.50;99.90
48686;DHT22;34485;51.536;3.816;2022-12-28T15:25:06;9.40;99.90
48686;DHT22;34485;51.536;3.816;2022-12-28T15:27:31;9.40;99.90
48686;DHT22;34485;51.536;3.816;2022-12-28T15:29:57;9.50;99.90
48686;DHT22;34485;51.536;3.816;2022-12-28T15:32:22;9.40;99.90
48686;DHT22;34485;51.536;3.816;2022-12-28T15:34:48;9.40;99.90
48686;DHT22;34485;51.536;3.816;2022-12-28T15:37:14;9.40;99.90
48686;DHT22;34485;51.536;3.816;2022-12-28T15:39:39;9.40;99.90
48686;DHT22;34485;51.536;3.816;2022-12-28T15:42:05;9.40;99.90
48686;DHT22;34485;51.536;3.816;2022-12-28T15:44:30;9.40;99.90
48686;DHT22;34485;51.536;3.816;2022-12-28T15:46:56;9.40;99.90
48686;DHT22;34485;51.536;3.816;2022-12-28T15:49:22;9.30;99.90
48686;DHT22;34485;51.536;3.816;2022-12-28T15:51:47;9.30;99.90
48686;DHT22;34485;51.536;3.816;2022-12-28T15:54:13;9.30;99.90
48686;DHT22;34485;51.536;3.816;2022-12-28T15:56:40;9.30;99.90
48686;DHT22;34485;51.536;3.816;2022-12-28T15:59:13;9.30;99.90
48686;DHT22;34485;51.536;3.816;2022-12-28T16:01:39;9.30;99.90
48686;DHT22;34485;51.536;3.816;2022-12-28T16:04:06;9.30;99.90
48686;DHT22;34485;51.536;3.816;2022-12-28T16:06:32;9.30;99.90
48686;DHT22;34485;51.536;3.816;2022-12-28T16:08:59;9.30;99.90
48686;DHT22;34485;51.536;3.816;2022-12-28T16:11:26;9.30;99.90
48686;DHT22;34485;51.536;3.816;2022-12-28T16:14:06;9.30;99.90
48686;DHT22;34485;51.536;3.816;2022-12-28T16:16:35;9.30;99.90
48686;DHT22;34485;51.536;3.816;2022-12-28T16:19:02;9.30;99.90
48686;DHT22;34485;51.536;3.816;2022-12-28T16:21:28;9.30;99.90
48686;DHT22;34485;51.536;3.816;2022-12-28T16:23:54;9.30;99.90
48686;DHT22;34485;51.536;3.816;2022-12-28T16:26:20;9.30;99.90
48686;DHT22;34485;51.536;3.816;2022-12-28T16:28:46;9.40;99.90
48686;DHT22;34485;51.536;3.816;2022-12-28T16:31:30;9.40;99.90
48686;DHT22;34485;51.536;3.816;2022-12-28T16:34:01;9.40;99.90
48686;DHT22;34485;51.536;3.816;2022-12-28T16:36:27;9.40;99.90
48686;DHT22;34485;51.536;3.816;2022-12-28T16:38:53;9.40;99.90
48686;DHT22;34485;51.536;3.816;2022-12-28T16:41:20;9.40;99.90
48686;DHT22;34485;51.536;3.816;2022-12-28T16:43:47;9.40;99.90
48686;DHT22;34485;51.536;3.816;2022-12-28T16:46:12;9.40;99.90
48686;DHT22;34485;51.536;3.816;2022-12-28T16:48:38;9.40;99.90
48686;DHT22;34485;51.536;3.816;2022-12-28T16:51:05;9.40;99.90
48686;DHT22;34485;51.536;3.816;2022-12-28T16:53:31;9.40;99.90
48686;DHT22;34485;51.536;3.816;2022-12-28T16:56:01;9.40;99.90
48686;DHT22;34485;51.536;3.816;2022-12-28T16:58:28;9.40;99.90
48686;DHT22;34485;51.536;3.816;2022-12-28T17:00:54;9.30;99.90
48686;DHT22;34485;51.536;3.816;2022-12-28T17:03:19;9.30;99.90
48686;DHT22;34485;51.536;3.816;2022-12-28T17:05:48;9.30;99.90
48686;DHT22;34485;51.536;3.816;2022-12-28T17:08:14;9.40;99.90
48686;DHT22;34485;51.536;3.816;2022-12-28T17:10:40;9.30;99.90
48686;DHT22;34485;51.536;3.816;2022-12-28T17:13:06;9.30;99.90
48686;DHT22;34485;51.536;3.816;2022-12-28T17:15:32;9.30;99.90
48686;DHT22;34485;51.536;3.816;2022-12-28T17:17:57;9.40;99.90
48686;DHT22;34485;51.536;3.816;2022-12-28T17:20:23;9.40;99.90
48686;DHT22;34485;51.536;3.816;2022-12-28T17:22:50;9.40;99.90
48686;DHT22;34485;51.536;3.816;2022-12-28T17:25:15;9.40;99.90
48686;DHT22;34485;51.536;3.816;2022-12-28T17:27:41;9.40;99.90
48686;DHT22;34485;51.536;3.816;2022-12-28T17:30:07;9.40;99.90
48686;DHT22;34485;51.536;3.816;2022-12-28T17:32:33;9.40;99.90
48686;DHT22;34485;51.536;3.816;2022-12-28T17:34:59;9.40;99.90
48686;DHT22;34485;51.536;3.816;2022-12-28T17:37:25;9.50;99.90
48686;DHT22;34485;51.536;3.816;2022-12-28T17:39:50;9.50;99.90
48686;DHT22;34485;51.536;3.816;2022-12-28T17:42:16;9.50;99.90
48686;DHT22;34485;51.536;3.816;2022-12-28T17:44:41;9.50;99.90
48686;DHT22;34485;51.536;3.816;2022-12-28T17:47:10;9.50;99.90
48686;DHT22;34485;51.536;3.816;2022-12-28T17:49:35;9.50;99.90
48686;DHT22;34485;51.536;3.816;2022-12-28T17:52:02;9.60;99.90
48686;DHT22;34485;51.536;3.816;2022-12-28T17:54:27;9.50;99.90
48686;DHT22;34485;51.536;3.816;2022-12-28T17:56:53;9.50;99.90
48686;DHT22;34485;51.536;3.816;2022-12-28T17:59:18;9.60;99.90
48686;DHT22;34485;51.536;3.816;2022-12-28T18:01:44;9.60;99.90
48686;DHT22;34485;51.536;3.816;2022-12-28T18:04:10;9.60;99.90
48686;DHT22;34485;51.536;3.816;2022-12-28T18:06:36;9.60;99.90
48686;DHT22;34485;51.536;3.816;2022-12-28T18:09:02;9.60;99.90
48686;DHT22;34485;51.536;3.816;2022-12-28T18:11:28;9.60;99.90
48686;DHT22;34485;51.536;3.816;2022-12-28T18:13:54;9.70;99.90
48686;DHT22;34485;51.536;3.816;2022-12-28T18:16:23;9.70;99.90
48686;DHT22;34485;51.536;3.816;2022-12-28T18:18:49;9.70;99.90
48686;DHT22;34485;51.536;3.816;2022-12-28T18:21:16;9.70;99.90
48686;DHT22;34485;51.536;3.816;2022-12-28T18:23:46;9.70;99.90
48686;DHT22;34485;51.536;3.816;2022-12-28T18:26:15;9.70;99.90
48686;DHT22;34485;51.536;3.816;2022-12-28T18:28:41;9.70;99.90
48686;DHT22;34485;51.536;3.816;2022-12-28T18:31:06;9.80;99.90
48686;DHT22;34485;51.536;3.816;2022-12-28T18:33:32;9.80;99.90
48686;DHT22;34485;51.536;3.816;2022-12-28T18:36:05;9.80;99.90
48686;DHT22;34485;51.536;3.816;2022-12-28T18:38:34;9.80;99.90
48686;DHT22;34485;51.536;3.816;2022-12-28T18:41:01;9.80;99.90
48686;DHT22;34485;51.536;3.816;2022-12-28T18:43:27;9.80;99.90
48686;DHT22;34485;51.536;3.816;2022-12-28T18:45:55;9.80;99.90
48686;DHT22;34485;51.536;3.816;2022-12-28T18:48:21;9.90;99.90
48686;DHT22;34485;51.536;3.816;2022-12-28T18:50:59;9.90;99.90
48686;DHT22;34485;51.536;3.816;2022-12-28T18:53:26;9.90;99.90
48686;DHT22;34485;51.536;3.816;2022-12-28T18:56:13;9.90;99.90
48686;DHT22;34485;51.536;3.816;2022-12-28T18:58:39;10.00;99.90
48686;DHT22;34485;51.536;3.816;2022-12-28T19:01:16;10.00;99.90
48686;DHT22;34485;51.536;3.816;2022-12-28T19:03:45;10.00;99.90
48686;DHT22;34485;51.536;3.816;2022-12-28T19:06:11;10.10;99.90
48686;DHT22;34485;51.536;3.816;2022-12-28T19:08:38;10.20;99.90
48686;DHT22;34485;51.536;3.816;2022-12-28T19:11:06;10.20;99.90
48686;DHT22;34485;51.536;3.816;2022-12-28T19:13:34;10.30;99.90
48686;DHT22;34485;51.536;3.816;2022-12-28T19:16:02;10.30;99.90
48686;DHT22;34485;51.536;3.816;2022-12-28T19:18:28;10.30;99.90
48686;DHT22;34485;51.536;3.816;2022-12-28T19:21:00;10.30;99.90
48686;DHT22;34485;51.536;3.816;2022-12-28T19:26:04;10.40;99.90
48686;DHT22;34485;51.536;3.816;2022-12-28T19:28:30;10.40;99.90
48686;DHT22;34485;51.536;3.816;2022-12-28T19:30:56;10.40;99.90
48686;DHT22;34485;51.536;3.816;2022-12-28T19:33:21;10.40;99.90